Home > Products > Valid Products > MTR

000
SAUS45 KTWC 281952
MTRSAD
METAR KSAD 281951Z AUTO 16009G19KT 10SM CLR 32/M07 A2989 RMK AO2
SLP072 T03171072





000
SAUS45 KTWC 281852
MTRSAD
METAR KSAD 281851Z AUTO 18009G16KT 10SM CLR 31/M06 A2991 RMK AO2
SLP078 T03111061





000
SAUS45 KTWC 281753
MTRSAD
METAR KSAD 281751Z AUTO 18007KT 10SM CLR 29/M04 A2993 RMK AO2 SLP083
T02891044 10289 20117 57005





000
SAUS45 KTWC 281153
MTRSAD
METAR KSAD 281151Z AUTO 17004KT 10SM CLR 12/M06 A2990 RMK AO2 SLP085
T01221061 10222 20117 51004





000
SAUS45 KTWC 281052
MTRSAD
METAR KSAD 281051Z AUTO 10003KT 10SM CLR 13/M06 A2990 RMK AO2 SLP082
T01281061





000
SAUS45 KTWC 280853
MTRSAD
METAR KSAD 280851Z AUTO 14004KT 10SM CLR 15/M06 A2989 RMK AO2 SLP078
T01501056 52005





000
SAUS45 KTWC 280752
MTRSAD
METAR KSAD 280751Z AUTO 00000KT 10SM CLR 18/M05 A2989 RMK AO2 SLP075
T01831050





000
SAUS45 KTWC 280652
MTRSAD
METAR KSAD 280651Z AUTO 33005KT 10SM CLR 19/M06 A2988 RMK AO2 SLP070
T01891056 403060106





000
SAUS45 KTWC 280452
MTRSAD
METAR KSAD 280451Z AUTO 32009KT 10SM CLR 22/M06 A2987 RMK AO2 SLP069
T02221056





000
SAUS45 KTWC 272252
MTRSAD
METAR KSAD 272251Z AUTO 01008KT 10SM CLR 30/M06 A2981 RMK AO2 SLP050
T03001056





000
SAUS45 KTWC 271853
MTRSAD
METAR KSAD 271851Z AUTO 31008G21KT 10SM CLR 28/M04 A2989 RMK AO2
SLP075 T02781039





000
SAUS45 KTWC 271452
MTRSAD
METAR KSAD 271451Z AUTO 16005KT 10SM CLR 18/M04 A2995 RMK AO2 SLP105
T01781039 51010





000
SAUS45 KTWC 271253
MTRSAD
METAR KSAD 271251Z AUTO 14004KT 10SM CLR 12/M05 A2994 RMK AO2 SLP103
T01171050





000
SAUS45 KTWC 271153
MTRSAD
METAR KSAD 271151Z AUTO 10005KT 10SM CLR 11/M05 A2992 RMK AO2 SLP096
T01111050 10183 20106 53004





000
SAUS45 KTWC 270953
MTRSAD
METAR KSAD 270951Z AUTO 32004KT 10SM CLR 14/M05 A2990 RMK AO2 SLP087
T01391050





000
SAUS45 KTWC 270852
MTRSAD
METAR KSAD 270851Z AUTO 29004KT 10SM CLR 14/M05 A2991 RMK AO2 SLP090
T01441050 58006





000
SAUS45 KTWC 270653
MTRSAD
METAR KSAD 270651Z AUTO 32008KT 10SM CLR 17/M04 A2992 RMK AO2 SLP093
T01721039 402780156





000
SAUS45 KTWC 270353
MTRSAD
METAR KSAD 270351Z AUTO 31008KT 10SM CLR 20/M06 A2991 RMK AO2 SLP088
T02001056





000
SAUS45 KTWC 270152
MTRSAD
METAR KSAD 270151Z AUTO 30015KT 10SM CLR 24/M06 A2986 RMK AO2 SLP069
T02391061





000
SAUS45 KTWC 261952
MTRSAD
METAR KSAD 261951Z AUTO 29009KT 10SM CLR 26/M07 A2992 RMK AO2 SLP088
T02561067





000
SAUS45 KTWC 261852
MTRSAD
METAR KSAD 261851Z AUTO 26009G20KT 10SM CLR 24/M07 A2994 RMK AO2
SLP097 T02391072





000
SAUS45 KTWC 260652
MTRSAD
METAR KSAD 260651Z AUTO 31014KT 10SM CLR 21/M08 A2993 RMK AO2 SLP085
T02061078 403280117





    US Dept of Commerce
    National Oceanic and Atmospheric Administration
    National Weather Service
    1325 East West Highway
    Silver Spring, MD 20910
    Page Author: NWS Internet Services Team
Disclaimer
Information Quality
Credits
Glossary
Privacy Policy
Freedom of Information Act (FOIA)
About Us
Career Opportunities